createdAt,value
2023-03-11T00:00:41.489Z,46.88
2023-03-11T00:03:10.029Z,48.52
2023-03-11T00:05:40.804Z,48.18
2023-03-11T00:08:11.977Z,47.86
2023-03-11T00:10:42.600Z,47.97
2023-03-11T00:13:12.434Z,48.92
2023-03-11T00:15:41.056Z,48.54
2023-03-11T00:18:09.169Z,47.83
2023-03-11T00:20:39.958Z,47.51
2023-03-11T00:23:09.092Z,46.98
2023-03-11T00:25:38.378Z,50.54
2023-03-11T00:28:11.282Z,47.59
2023-03-11T00:30:40.268Z,47.29
2023-03-11T00:33:09.370Z,46.75
2023-03-11T00:35:37.291Z,48.44
2023-03-11T00:38:07.490Z,48.26
2023-03-11T00:40:36.431Z,47.86
2023-03-11T00:43:04.726Z,46.75
2023-03-11T00:45:33.060Z,47.96
2023-03-11T00:48:01.590Z,48.37
2023-03-11T00:50:32.545Z,49.27
2023-03-11T00:53:01.379Z,48.92
2023-03-11T00:55:34.445Z,48.13
2023-03-11T00:58:07.267Z,49.05
2023-03-11T01:00:45.070Z,48.10
2023-03-11T01:03:12.889Z,49.12
2023-03-11T01:05:40.995Z,47.78
2023-03-11T01:08:08.850Z,49.06
2023-03-11T01:10:37.204Z,47.90
2023-03-11T01:13:05.113Z,48.65
2023-03-11T01:15:37.287Z,47.45
2023-03-11T01:18:06.448Z,47.34
2023-03-11T01:20:36.729Z,49.10
2023-03-11T01:23:06.824Z,47.77
2023-03-11T01:25:35.221Z,49.28
2023-03-11T01:28:03.076Z,47.80
2023-03-11T01:30:31.710Z,50.11
2023-03-11T01:32:59.528Z,49.57
2023-03-11T01:35:29.336Z,49.04
2023-03-11T01:37:58.420Z,48.33
2023-03-11T01:40:32.343Z,50.20
2023-03-11T01:43:06.275Z,50.63
2023-03-11T01:45:37.827Z,51.20
2023-03-11T01:48:05.800Z,52.36
2023-03-11T01:50:41.601Z,50.00
2023-03-11T01:53:11.331Z,49.95
2023-03-11T01:55:41.098Z,50.84
2023-03-11T01:58:14.795Z,51.46
2023-03-11T02:00:43.405Z,49.65
2023-03-11T02:03:41.559Z,49.46
2023-03-11T02:06:21.666Z,49.27
2023-03-11T02:08:50.385Z,51.00
2023-03-11T02:11:25.012Z,52.22
2023-03-11T02:13:56.590Z,55.15
2023-03-11T02:16:26.499Z,55.15
2023-03-11T02:18:54.589Z,56.75
2023-03-11T02:21:28.865Z,58.13
2023-03-11T02:24:18.843Z,59.08
2023-03-11T02:27:06.643Z,59.69
2023-03-11T02:29:35.415Z,59.03
2023-03-11T02:32:07.021Z,58.36
2023-03-11T02:34:37.517Z,58.62
2023-03-11T02:37:08.875Z,58.97
2023-03-11T02:39:40.517Z,59.83
2023-03-11T02:42:32.504Z,59.76
2023-03-11T02:45:14.033Z,58.11
2023-03-11T02:47:41.935Z,58.75
2023-03-11T02:50:14.129Z,58.99
2023-03-11T02:52:42.138Z,59.12
2023-03-11T02:55:16.230Z,59.67
2023-03-11T02:57:44.701Z,59.09
2023-03-11T03:00:14.535Z,59.41
2023-03-11T03:02:46.537Z,58.57
2023-03-11T03:05:15.087Z,57.82
2023-03-11T03:07:43.377Z,57.68
2023-03-11T03:10:12.657Z,56.75
2023-03-11T03:12:40.572Z,56.55
2023-03-11T03:15:09.139Z,55.57
2023-03-11T03:17:37.501Z,55.08
2023-03-11T03:20:11.548Z,55.44
2023-03-11T03:22:42.818Z,55.72
2023-03-11T03:25:12.740Z,55.67
2023-03-11T03:27:40.756Z,54.99
2023-03-11T03:30:09.896Z,54.78
2023-03-11T03:32:38.570Z,54.61
2023-03-11T03:35:09.399Z,56.47
2023-03-11T03:37:57.553Z,54.96
2023-03-11T03:40:25.697Z,54.08
2023-03-11T03:42:54.760Z,54.93
2023-03-11T03:45:22.949Z,54.98
2023-03-11T03:47:53.499Z,56.79
2023-03-11T03:50:23.764Z,55.32
2023-03-11T03:52:53.685Z,54.22
2023-03-11T03:55:22.950Z,54.76
2023-03-11T03:57:50.916Z,55.46
2023-03-11T04:00:20.650Z,54.49
2023-03-11T04:02:55.365Z,54.64
2023-03-11T04:05:30.245Z,56.06
2023-03-11T04:07:58.204Z,54.83
2023-03-11T04:10:26.039Z,56.03
2023-03-11T04:12:54.186Z,54.80
2023-03-11T04:15:22.406Z,54.48
2023-03-11T04:17:50.453Z,55.83
2023-03-11T04:20:18.753Z,55.77
2023-03-11T04:22:49.775Z,55.71
2023-03-11T04:25:18.924Z,56.46
2023-03-11T04:27:50.148Z,56.25
2023-03-11T04:30:18.637Z,56.69
2023-03-11T04:32:48.454Z,56.79
2023-03-11T04:35:16.790Z,56.17
2023-03-11T04:37:45.320Z,57.14
2023-03-11T04:40:13.528Z,56.61
2023-03-11T04:42:41.543Z,56.76
2023-03-11T04:45:11.256Z,57.00
2023-03-11T04:47:40.627Z,56.61
2023-03-11T04:50:08.818Z,56.68
2023-03-11T04:52:36.868Z,56.05
2023-03-11T04:55:05.105Z,57.14
2023-03-11T04:57:33.723Z,56.94
2023-03-11T05:00:06.877Z,57.09
2023-03-11T05:02:34.900Z,57.90
2023-03-11T05:05:04.049Z,56.86
2023-03-11T05:07:31.901Z,57.33
2023-03-11T05:10:00.469Z,56.76
2023-03-11T05:12:28.695Z,56.42
2023-03-11T05:14:56.612Z,57.62
2023-03-11T05:17:25.134Z,56.83
2023-03-11T05:19:54.818Z,58.48
2023-03-11T05:22:26.505Z,58.36
2023-03-11T05:24:54.569Z,59.39
2023-03-11T05:27:22.877Z,59.01
2023-03-11T05:29:54.869Z,58.81
2023-03-11T05:32:24.825Z,59.01
2023-03-11T05:34:54.581Z,58.28
2023-03-11T05:37:22.522Z,59.74
2023-03-11T05:39:52.913Z,59.72
2023-03-11T05:42:21.700Z,59.73
2023-03-11T05:44:52.509Z,58.94
2023-03-11T05:47:21.918Z,59.12
2023-03-11T05:49:50.879Z,59.77
2023-03-11T05:52:20.294Z,60.69
2023-03-11T05:54:52.476Z,62.09
2023-03-11T05:57:23.951Z,61.23
2023-03-11T05:59:52.189Z,61.57
2023-03-11T06:02:21.387Z,60.83
2023-03-11T06:04:49.936Z,61.59
2023-03-11T06:07:18.170Z,61.40
2023-03-11T06:09:50.865Z,60.72
2023-03-11T06:12:19.852Z,60.40
2023-03-11T06:15:00.215Z,61.41
2023-03-11T06:17:30.296Z,62.08
2023-03-11T06:19:58.444Z,61.05
2023-03-11T06:22:26.638Z,61.98
2023-03-11T06:24:54.604Z,61.19
2023-03-11T06:27:22.967Z,61.62
2023-03-11T06:29:54.809Z,62.35
2023-03-11T06:32:24.990Z,62.37
2023-03-11T06:34:53.658Z,61.65
2023-03-11T06:37:25.283Z,58.96
2023-03-11T06:39:53.860Z,58.08
2023-03-11T06:42:24.427Z,56.15
2023-03-11T06:44:54.800Z,55.80
2023-03-11T06:47:23.110Z,54.94
2023-03-11T06:49:52.253Z,55.59
2023-03-11T06:52:20.559Z,57.41
2023-03-11T06:54:48.348Z,54.96
2023-03-11T06:57:17.953Z,53.84
2023-03-11T06:59:47.913Z,54.38
2023-03-11T07:02:17.998Z,53.91
2023-03-11T07:04:49.416Z,51.78
2023-03-11T07:07:18.663Z,51.36
2023-03-11T07:09:46.420Z,51.35
2023-03-11T07:12:16.049Z,50.99
2023-03-11T07:14:44.393Z,50.33
2023-03-11T07:17:12.809Z,49.29
2023-03-11T07:19:47.051Z,45.22
2023-03-11T07:22:21.743Z,43.99
2023-03-11T07:24:49.934Z,42.23
2023-03-11T07:27:17.910Z,42.37
2023-03-11T07:29:45.852Z,43.10
2023-03-11T07:32:14.330Z,41.46
2023-03-11T07:34:42.406Z,42.91
2023-03-11T07:37:10.512Z,45.77
2023-03-11T07:39:39.698Z,44.99
2023-03-11T07:42:07.755Z,46.13
2023-03-11T07:44:36.797Z,46.68
2023-03-11T07:47:05.639Z,47.59
2023-03-11T07:49:34.276Z,47.16
2023-03-11T07:52:02.056Z,47.57
2023-03-11T07:54:30.538Z,46.78
2023-03-11T07:56:58.957Z,48.12
2023-03-11T07:59:26.732Z,49.31
2023-03-11T08:01:54.598Z,48.43
2023-03-11T08:04:22.465Z,49.38
2023-03-11T08:06:50.477Z,48.86
2023-03-11T08:09:18.658Z,48.57
2023-03-11T08:11:47.524Z,48.67
2023-03-11T08:14:17.430Z,49.08
2023-03-11T08:16:45.512Z,50.21
2023-03-11T08:19:14.114Z,50.63
2023-03-11T08:21:51.017Z,49.96
2023-03-11T08:24:18.904Z,49.80
2023-03-11T08:26:46.751Z,51.14
2023-03-11T08:29:14.599Z,49.88
2023-03-11T08:31:42.435Z,50.96
2023-03-11T08:34:11.821Z,52.86
2023-03-11T08:36:39.917Z,53.33
2023-03-11T08:39:07.946Z,51.29
2023-03-11T08:41:36.014Z,55.68
2023-03-11T08:44:03.966Z,55.10
2023-03-11T08:46:38.201Z,56.00
2023-03-11T08:49:06.262Z,57.19
2023-03-11T08:51:35.377Z,58.89
2023-03-11T08:54:04.481Z,57.50
2023-03-11T08:56:32.524Z,59.61
2023-03-11T08:59:00.431Z,60.96
2023-03-11T09:01:29.750Z,60.36
2023-03-11T09:03:57.888Z,57.13
2023-03-11T09:06:25.790Z,57.30
2023-03-11T09:08:53.650Z,56.83
2023-03-11T09:11:22.746Z,57.84
2023-03-11T09:13:51.187Z,59.00
2023-03-11T09:16:22.309Z,59.18
2023-03-11T09:18:50.489Z,57.89
2023-03-11T09:21:18.525Z,58.55
2023-03-11T09:23:46.780Z,58.68
2023-03-11T09:26:15.187Z,59.03
2023-03-11T09:28:43.535Z,59.70
2023-03-11T09:31:11.397Z,61.47
2023-03-11T09:33:41.301Z,61.98
2023-03-11T09:36:13.823Z,62.62
2023-03-11T09:38:42.836Z,63.76
2023-03-11T09:41:22.850Z,62.42
2023-03-11T09:44:31.823Z,62.64
2023-03-11T09:47:14.878Z,63.08
2023-03-11T09:49:54.569Z,64.56
2023-03-11T09:52:33.348Z,64.10
2023-03-11T09:55:05.789Z,64.13
2023-03-11T09:57:37.417Z,62.97
2023-03-11T10:00:06.944Z,64.72
2023-03-11T10:02:41.750Z,61.83
2023-03-11T10:05:27.472Z,61.48
2023-03-11T10:08:13.188Z,59.90
2023-03-11T10:10:45.836Z,58.88
2023-03-11T10:13:24.481Z,59.45
2023-03-11T10:16:07.286Z,59.85
2023-03-11T10:18:58.554Z,60.80
2023-03-11T10:21:34.984Z,60.27
2023-03-11T10:24:23.019Z,59.91
2023-03-11T10:26:57.037Z,59.70
2023-03-11T10:29:31.082Z,58.23
2023-03-11T10:32:07.077Z,59.72
2023-03-11T10:34:40.030Z,59.78
2023-03-11T10:37:24.776Z,61.19
2023-03-11T10:39:54.161Z,60.92
2023-03-11T10:42:28.965Z,61.45
2023-03-11T10:44:57.040Z,60.36
2023-03-11T10:47:25.998Z,61.64
2023-03-11T10:49:53.887Z,61.41
2023-03-11T10:52:21.807Z,60.31
2023-03-11T10:55:01.139Z,59.87
2023-03-11T10:57:34.214Z,58.70
2023-03-11T11:00:17.445Z,59.08
2023-03-11T11:02:58.317Z,59.19
2023-03-11T11:05:30.850Z,59.41
2023-03-11T11:08:17.148Z,57.92
2023-03-11T11:10:53.899Z,58.90
2023-03-11T11:13:24.442Z,59.30
2023-03-11T11:15:56.894Z,59.49
2023-03-11T11:18:30.133Z,59.18
2023-03-11T11:21:04.457Z,56.27
2023-03-11T11:23:37.458Z,57.36
2023-03-11T11:26:07.444Z,56.91
2023-03-11T11:28:35.378Z,57.75
2023-03-11T11:31:05.046Z,57.59
2023-03-11T11:33:34.328Z,58.17
2023-03-11T11:36:03.295Z,55.82
2023-03-11T11:38:32.003Z,55.62
2023-03-11T11:41:01.958Z,55.65
2023-03-11T11:43:32.296Z,56.06
2023-03-11T11:46:02.943Z,55.23
2023-03-11T11:48:39.965Z,55.02
2023-03-11T11:51:15.481Z,55.51
2023-03-11T11:53:55.597Z,55.17
2023-03-11T11:56:27.249Z,53.70
2023-03-11T11:58:55.511Z,52.96
2023-03-11T12:01:29.363Z,53.39
2023-03-11T12:03:59.920Z,55.23
2023-03-11T12:06:42.714Z,54.06
2023-03-11T12:09:14.837Z,51.96
2023-03-11T12:11:49.579Z,52.80
2023-03-11T12:14:18.269Z,51.34
2023-03-11T12:17:03.886Z,52.15
2023-03-11T12:19:44.088Z,50.42
2023-03-11T12:22:11.721Z,50.89
2023-03-11T12:24:42.135Z,49.79
2023-03-11T12:27:25.401Z,51.59
2023-03-11T12:29:55.745Z,52.10
2023-03-11T12:32:28.070Z,50.57
2023-03-11T12:34:56.264Z,51.69
2023-03-11T12:37:23.798Z,50.02
2023-03-11T12:39:51.362Z,50.18
2023-03-11T12:42:22.638Z,49.55
2023-03-11T12:44:50.202Z,50.82
2023-03-11T12:47:19.247Z,49.49
2023-03-11T12:49:48.419Z,49.65
2023-03-11T12:52:18.820Z,50.20
2023-03-11T12:54:47.679Z,50.78
2023-03-11T12:57:18.184Z,49.39
2023-03-11T12:59:48.508Z,49.30
2023-03-11T13:02:34.751Z,49.24
2023-03-11T13:05:25.316Z,48.91
2023-03-11T13:08:00.586Z,47.72
2023-03-11T13:10:34.073Z,45.31
2023-03-11T13:13:02.314Z,45.94
2023-03-11T13:15:31.205Z,45.50
2023-03-11T13:17:59.140Z,45.04
2023-03-11T13:20:35.538Z,43.83
2023-03-11T13:23:03.174Z,44.61
2023-03-11T13:25:43.060Z,43.70
2023-03-11T13:28:20.353Z,44.30
2023-03-11T13:31:06.079Z,43.23
2023-03-11T13:33:42.178Z,45.22
2023-03-11T13:36:28.432Z,44.67
2023-03-11T13:39:06.427Z,43.21
2023-03-11T13:41:35.857Z,42.80
2023-03-11T13:44:12.376Z,44.14
2023-03-11T13:46:42.050Z,43.94
2023-03-11T13:49:15.116Z,42.71
2023-03-11T13:51:47.693Z,43.90
2023-03-11T13:54:20.195Z,43.37
2023-03-11T13:56:54.216Z,41.87
2023-03-11T13:59:21.788Z,41.79
2023-03-11T14:01:53.030Z,42.09
2023-03-11T14:04:24.014Z,43.08
2023-03-11T14:06:52.610Z,43.65
2023-03-11T14:09:21.504Z,43.74
2023-03-11T14:11:49.382Z,41.24
2023-03-11T14:14:35.488Z,41.36
2023-03-11T14:17:04.258Z,42.41
2023-03-11T14:19:31.813Z,44.24
2023-03-11T14:21:59.347Z,44.39
2023-03-11T14:24:29.588Z,43.56
2023-03-11T14:26:59.199Z,44.31
2023-03-11T14:29:27.460Z,44.45
2023-03-11T14:31:55.934Z,44.55
2023-03-11T14:34:27.756Z,44.47
2023-03-11T14:36:58.435Z,43.30
2023-03-11T14:39:25.914Z,44.26
2023-03-11T14:42:06.482Z,43.84
2023-03-11T14:44:40.592Z,45.07
2023-03-11T14:47:17.562Z,46.01
2023-03-11T14:49:46.422Z,45.33
2023-03-11T14:52:21.157Z,45.64
2023-03-11T14:54:49.954Z,45.25
2023-03-11T14:57:28.007Z,46.01
2023-03-11T14:59:56.874Z,45.43
2023-03-11T15:02:42.843Z,47.73
2023-03-11T15:05:30.690Z,49.26
2023-03-11T15:08:00.699Z,49.87
2023-03-11T15:10:28.515Z,50.47
2023-03-11T15:13:09.598Z,51.85
2023-03-11T15:15:37.486Z,51.98
2023-03-11T15:18:20.001Z,51.77
2023-03-11T15:21:01.930Z,51.92
2023-03-11T15:23:30.861Z,54.22
2023-03-11T15:25:58.533Z,54.72
2023-03-11T15:28:30.878Z,54.97
2023-03-11T15:31:17.882Z,54.84
2023-03-11T15:33:45.875Z,54.21
2023-03-11T15:36:32.910Z,53.62
2023-03-11T15:39:14.978Z,53.14
2023-03-11T15:41:43.033Z,53.48
2023-03-11T15:44:25.751Z,53.56
2023-03-11T15:46:53.836Z,53.21
2023-03-11T15:49:21.890Z,53.18
2023-03-11T15:51:49.545Z,53.46
2023-03-11T15:54:17.115Z,54.47
2023-03-11T15:56:45.245Z,55.08
2023-03-11T15:59:16.895Z,55.01
2023-03-11T16:01:44.953Z,54.84
2023-03-11T16:04:13.869Z,54.82
2023-03-11T16:06:42.227Z,56.06
2023-03-11T16:09:10.302Z,55.46
2023-03-11T16:11:37.904Z,55.73
2023-03-11T16:14:05.929Z,55.65
2023-03-11T16:16:33.546Z,55.75
2023-03-11T16:19:02.500Z,55.79
2023-03-11T16:21:34.441Z,55.61
2023-03-11T16:24:02.129Z,55.52
2023-03-11T16:26:30.470Z,55.63
